Time;durP1;ratioP1;P1;durP2;ratioP2;P2;SDS_P1;SDS_P2;PMS_P1;PMS_P2;Temp;Humidity;BMP_temperature;BMP_pressure;BME280_temperature;BME280_humidity;BME280_pressure;Samples;Min_cycle;Max_cycle;Signal;HPM_P1;HPM_P2
2024/01/27 00:01:38;;;;;;;26.13;3.47;;;4.40;99.90;;;;;;5073946;28;20044;-71
2024/01/27 00:04:03;;;;;;;26.88;4.65;;;4.40;99.90;;;;;;5073674;28;20493;-71
2024/01/27 00:06:29;;;;;;;24.80;4.38;;;4.40;99.90;;;;;;5073477;28;20041;-71
2024/01/27 00:08:55;;;;;;;22.90;4.00;;;4.40;99.90;;;;;;5075073;28;20036;-71
2024/01/27 00:11:23;;;;;;;30.42;5.20;;;4.40;99.90;;;;;;5075030;28;20043;-71
2024/01/27 00:13:48;;;;;;;21.65;4.03;;;4.40;99.90;;;;;;5073447;28;20041;-71
2024/01/27 00:16:14;;;;;;;29.60;4.75;;;4.40;99.90;;;;;;5074544;28;20101;-71
2024/01/27 00:18:40;;;;;;;22.05;3.28;;;4.40;99.90;;;;;;5073365;28;20055;-71
2024/01/27 00:21:06;;;;;;;34.22;5.00;;;4.30;99.90;;;;;;5073337;28;20040;-71
2024/01/27 00:23:32;;;;;;;26.95;4.80;;;4.20;99.90;;;;;;5056444;28;20040;-71
2024/01/27 00:25:58;;;;;;;23.13;4.10;;;4.20;99.90;;;;;;5074609;28;20039;-71
2024/01/27 00:28:24;;;;;;;21.17;3.88;;;4.20;99.90;;;;;;5056797;28;20531;-71
2024/01/27 00:30:49;;;;;;;20.20;3.60;;;4.20;99.90;;;;;;5074620;28;20040;-71
2024/01/27 00:33:15;;;;;;;26.05;4.60;;;4.20;99.90;;;;;;5073039;28;20044;-71
2024/01/27 00:35:41;;;;;;;25.75;4.13;;;4.20;99.90;;;;;;5072902;28;20048;-71
2024/01/27 00:38:07;;;;;;;25.35;3.90;;;4.10;99.90;;;;;;5072980;28;20501;-71
2024/01/27 00:40:32;;;;;;;24.33;4.05;;;4.10;99.90;;;;;;5074091;28;20032;-71
2024/01/27 00:42:58;;;;;;;21.35;3.75;;;4.10;99.90;;;;;;5056256;28;20090;-71
2024/01/27 00:45:26;;;;;;;28.58;4.38;;;4.10;99.90;;;;;;5073894;28;20076;-71
2024/01/27 00:47:51;;;;;;;25.00;3.80;;;4.10;99.90;;;;;;5072791;28;20082;-71
2024/01/27 00:50:17;;;;;;;25.13;4.43;;;4.10;99.90;;;;;;5072704;28;20044;-71
2024/01/27 00:52:43;;;;;;;26.10;4.45;;;4.00;99.90;;;;;;5072921;28;20039;-71
2024/01/27 00:55:08;;;;;;;27.10;3.88;;;4.10;99.90;;;;;;5072598;28;20464;-71
2024/01/27 00:57:37;;;;;;;20.23;3.75;;;4.00;99.90;;;;;;5072608;28;20048;-71
2024/01/27 01:00:03;;;;;;;22.65;4.43;;;4.00;99.90;;;;;;5074067;28;20044;-71
2024/01/27 01:02:29;;;;;;;24.17;3.97;;;4.00;99.90;;;;;;5072766;28;20146;-71
2024/01/27 01:04:54;;;;;;;27.27;3.50;;;3.90;99.90;;;;;;5072388;28;20503;-71
2024/01/27 01:07:20;;;;;;;26.58;4.20;;;3.90;99.90;;;;;;5072410;28;20044;-71
2024/01/27 01:09:45;;;;;;;32.45;4.53;;;3.90;99.90;;;;;;5072611;28;20393;-71
2024/01/27 01:12:11;;;;;;;29.50;4.53;;;3.90;99.90;;;;;;5072384;28;20482;-71
2024/01/27 01:14:37;;;;;;;21.50;3.97;;;3.90;99.90;;;;;;5055663;28;20119;-71
2024/01/27 01:17:02;;;;;;;28.40;4.05;;;3.90;99.90;;;;;;5072174;28;20043;-71
2024/01/27 01:19:28;;;;;;;24.08;3.67;;;3.90;99.90;;;;;;5073742;28;20041;-71
2024/01/27 01:21:54;;;;;;;26.27;4.00;;;3.90;99.90;;;;;;5073725;28;20029;-71
2024/01/27 01:24:19;;;;;;;22.27;4.47;;;3.90;99.90;;;;;;5073752;28;20396;-71
2024/01/27 01:26:45;;;;;;;21.27;3.85;;;3.90;99.90;;;;;;5071912;28;20040;-71
2024/01/27 01:29:10;;;;;;;24.77;3.85;;;3.80;99.90;;;;;;5072146;28;20066;-71
2024/01/27 01:31:36;;;;;;;27.45;3.78;;;3.80;99.90;;;;;;5073554;28;20067;-71
2024/01/27 01:34:01;;;;;;;23.00;3.83;;;3.80;99.90;;;;;;5073460;28;20029;-71
2024/01/27 01:36:27;;;;;;;25.08;4.10;;;3.70;99.90;;;;;;5072985;28;20036;-71
2024/01/27 01:38:53;;;;;;;24.25;3.90;;;3.70;99.90;;;;;;5071972;28;20082;-71
2024/01/27 01:41:18;;;;;;;20.40;3.63;;;3.80;99.90;;;;;;5073460;28;20123;-71
2024/01/27 01:43:44;;;;;;;17.50;3.38;;;3.80;99.90;;;;;;5072072;28;20044;-71
2024/01/27 01:46:09;;;;;;;34.85;4.35;;;3.80;99.90;;;;;;5073282;28;20401;-71
2024/01/27 01:48:35;;;;;;;25.42;3.58;;;3.80;99.90;;;;;;5071878;28;20028;-71
2024/01/27 01:51:02;;;;;;;24.85;3.38;;;3.80;99.90;;;;;;5073332;28;20029;-71
2024/01/27 01:53:27;;;;;;;18.90;3.22;;;3.90;99.90;;;;;;5071767;28;20485;-71
2024/01/27 01:55:53;;;;;;;29.83;4.75;;;3.80;99.90;;;;;;5072116;28;20040;-71
2024/01/27 01:58:19;;;;;;;20.92;3.47;;;3.80;99.90;;;;;;5072024;28;20040;-71
2024/01/27 02:00:45;;;;;;;19.80;3.60;;;3.80;99.90;;;;;;5072020;28;20475;-71
2024/01/27 02:03:13;;;;;;;24.50;3.80;;;3.70;99.90;;;;;;5072123;28;20033;-71
2024/01/27 02:05:40;;;;;;;25.58;3.97;;;3.70;99.90;;;;;;5073023;28;20086;-71
2024/01/27 02:08:05;;;;;;;26.65;3.97;;;3.70;99.90;;;;;;5071676;28;20120;-71
2024/01/27 02:10:36;;;;;;;21.25;3.88;;;3.70;99.90;;;;;;5071638;28;20124;-71
2024/01/27 02:13:22;;;;;;;18.38;3.47;;;3.70;99.90;;;;;;5071945;28;20037;-71
2024/01/27 02:15:49;;;;;;;23.42;3.42;;;3.70;99.90;;;;;;5054973;28;20052;-71
2024/01/27 02:18:15;;;;;;;23.98;3.53;;;3.60;99.90;;;;;;5071593;28;20056;-71
2024/01/27 02:20:42;;;;;;;25.90;4.70;;;3.60;99.90;;;;;;5073639;28;20037;-71
2024/01/27 02:23:07;;;;;;;27.27;4.13;;;3.60;99.90;;;;;;5071502;28;20494;-71
2024/01/27 02:25:34;;;;;;;16.65;3.05;;;3.60;99.90;;;;;;5071325;28;20055;-71
2024/01/27 02:28:00;;;;;;;22.90;3.67;;;3.60;99.90;;;;;;5071701;28;20041;-71
2024/01/27 02:30:26;;;;;;;25.70;3.70;;;3.50;99.90;;;;;;5071703;28;20401;-71
2024/01/27 02:32:52;;;;;;;25.58;4.15;;;3.60;99.90;;;;;;5071454;28;20036;-71
2024/01/27 02:35:17;;;;;;;24.00;4.85;;;3.60;99.90;;;;;;5071569;28;20058;-71
2024/01/27 02:37:43;;;;;;;23.00;4.05;;;3.50;99.90;;;;;;5071384;28;20464;-70
2024/01/27 02:40:09;;;;;;;21.30;3.30;;;3.50;99.90;;;;;;5071372;28;20040;-70
2024/01/27 02:42:36;;;;;;;28.17;3.50;;;3.50;99.90;;;;;;5072839;28;20037;-70
2024/01/27 02:45:03;;;;;;;24.73;3.33;;;3.50;99.90;;;;;;5072423;28;20059;-71
2024/01/27 02:47:28;;;;;;;23.48;4.55;;;3.60;99.90;;;;;;5074266;28;20055;-71
2024/01/27 02:49:54;;;;;;;22.65;3.33;;;3.60;99.90;;;;;;5075092;28;20040;-71
2024/01/27 02:52:20;;;;;;;22.17;4.20;;;3.60;99.90;;;;;;5076522;28;20079;-71
2024/01/27 02:54:45;;;;;;;20.65;3.38;;;3.60;99.90;;;;;;5074901;28;20124;-71
2024/01/27 02:57:12;;;;;;;22.35;4.05;;;3.60;99.90;;;;;;5076413;28;20040;-71
2024/01/27 02:59:38;;;;;;;19.88;3.40;;;3.60;99.90;;;;;;5076417;28;20404;-71
2024/01/27 03:02:05;;;;;;;24.48;3.55;;;3.60;99.90;;;;;;5074866;28;20080;-71
2024/01/27 03:04:31;;;;;;;21.10;3.78;;;3.50;99.90;;;;;;5074784;28;20558;-71
2024/01/27 03:06:56;;;;;;;24.45;4.40;;;3.50;99.90;;;;;;5074581;28;20040;-71
2024/01/27 03:09:22;;;;;;;24.58;3.30;;;3.50;99.90;;;;;;5076176;28;20397;-71
2024/01/27 03:11:48;;;;;;;22.25;3.63;;;3.50;99.90;;;;;;5074916;28;20036;-71
2024/01/27 03:14:14;;;;;;;21.88;4.00;;;3.40;99.90;;;;;;5076130;28;20485;-71
2024/01/27 03:16:40;;;;;;;20.02;3.65;;;3.50;99.90;;;;;;5076075;28;20044;-71
2024/01/27 03:19:06;;;;;;;18.95;3.95;;;3.40;99.90;;;;;;5057833;28;20047;-71
2024/01/27 03:21:32;;;;;;;22.35;3.42;;;3.40;99.90;;;;;;5074782;28;20045;-71
2024/01/27 03:23:57;;;;;;;19.73;2.92;;;3.40;99.90;;;;;;5074460;28;20434;-71
2024/01/27 03:26:23;;;;;;;25.05;3.65;;;3.40;99.90;;;;;;5074238;28;20044;-71
2024/01/27 03:28:48;;;;;;;21.08;3.17;;;3.40;99.90;;;;;;5075827;28;20116;-71
2024/01/27 03:31:14;;;;;;;22.20;3.58;;;3.30;99.90;;;;;;5074360;28;20115;-71
2024/01/27 03:33:39;;;;;;;22.13;3.30;;;3.20;99.90;;;;;;5074652;28;20066;-71
2024/01/27 03:36:13;;;;;;;18.02;2.95;;;3.30;99.90;;;;;;5074448;28;20048;-71
2024/01/27 03:38:42;;;;;;;22.88;3.78;;;3.30;99.90;;;;;;5074192;28;20040;-71
2024/01/27 03:41:07;;;;;;;24.10;3.67;;;3.30;99.90;;;;;;5074123;28;20076;-71
2024/01/27 03:43:36;;;;;;;25.55;3.63;;;3.30;99.90;;;;;;5075594;28;20049;-71
2024/01/27 03:46:02;;;;;;;22.63;3.13;;;3.30;99.90;;;;;;5057367;28;20040;-71
2024/01/27 03:48:29;;;;;;;18.17;2.88;;;3.30;99.90;;;;;;5074288;28;20131;-71
2024/01/27 03:50:55;;;;;;;25.48;4.07;;;3.30;99.90;;;;;;5075137;28;20135;-71
2024/01/27 03:53:20;;;;;;;20.88;3.42;;;3.40;99.90;;;;;;5057208;28;20033;-71
2024/01/27 03:55:46;;;;;;;21.17;3.92;;;3.40;99.90;;;;;;5075336;28;20090;-71
2024/01/27 03:58:11;;;;;;;24.10;3.88;;;3.30;99.90;;;;;;5073308;28;20481;-71
2024/01/27 04:00:37;;;;;;;19.95;3.35;;;3.30;99.90;;;;;;5075268;28;20041;-71
2024/01/27 04:03:03;;;;;;;22.27;5.13;;;3.40;99.90;;;;;;5075257;28;20083;-71
2024/01/27 04:05:30;;;;;;;21.67;3.03;;;3.40;99.90;;;;;;5073622;28;20048;-71
2024/01/27 04:07:56;;;;;;;19.92;3.40;;;3.40;99.90;;;;;;5073584;28;20413;-71
2024/01/27 04:10:22;;;;;;;25.50;3.67;;;3.30;99.90;;;;;;5073565;28;20036;-71
2024/01/27 04:12:48;;;;;;;19.25;2.92;;;3.30;99.90;;;;;;5073494;28;20551;-71
2024/01/27 04:15:13;;;;;;;22.13;3.17;;;3.30;99.90;;;;;;5073372;28;20041;-71
2024/01/27 04:17:40;;;;;;;24.27;3.15;;;3.30;99.90;;;;;;5056758;28;20044;-71
2024/01/27 04:20:07;;;;;;;24.10;3.85;;;3.30;99.90;;;;;;5073367;28;20094;-71
2024/01/27 04:22:34;;;;;;;29.15;3.67;;;3.30;99.90;;;;;;5074810;28;20045;-71
2024/01/27 04:24:59;;;;;;;22.90;3.72;;;3.20;99.90;;;;;;5073428;28;20045;-71
2024/01/27 04:27:27;;;;;;;25.92;4.40;;;3.10;99.90;;;;;;5073105;28;20432;-71
2024/01/27 04:29:52;;;;;;;18.15;3.30;;;3.10;99.90;;;;;;5073183;28;20464;-71
2024/01/27 04:32:18;;;;;;;23.88;4.07;;;3.10;99.90;;;;;;5073157;28;20068;-71
2024/01/27 04:34:43;;;;;;;21.33;4.03;;;3.20;99.90;;;;;;5072961;28;20040;-71
2024/01/27 04:37:09;;;;;;;24.38;3.70;;;3.10;99.90;;;;;;5073008;28;20042;-71
2024/01/27 04:39:35;;;;;;;27.35;4.22;;;3.10;99.90;;;;;;5073031;28;20036;-71
2024/01/27 04:42:01;;;;;;;31.05;4.45;;;3.10;99.90;;;;;;5072978;28;20071;-70
2024/01/27 04:44:27;;;;;;;24.67;3.90;;;3.00;99.90;;;;;;5056103;28;20090;-71
2024/01/27 04:46:52;;;;;;;24.75;4.28;;;3.10;99.90;;;;;;5072752;28;20040;-71
2024/01/27 04:49:18;;;;;;;31.17;3.80;;;3.10;99.90;;;;;;5073991;28;20050;-71
2024/01/27 04:51:43;;;;;;;22.58;3.30;;;3.10;99.90;;;;;;5074244;28;20040;-71
2024/01/27 04:54:09;;;;;;;27.55;3.65;;;3.10;99.90;;;;;;5072937;28;20079;-71
2024/01/27 04:56:35;;;;;;;23.70;4.35;;;3.10;99.90;;;;;;5073762;28;20044;-71
2024/01/27 04:59:01;;;;;;;23.70;4.15;;;3.10;99.90;;;;;;5072605;28;20040;-71
2024/01/27 05:01:26;;;;;;;20.17;3.53;;;3.10;99.90;;;;;;5072584;28;20174;-71
2024/01/27 05:03:52;;;;;;;22.52;5.13;;;3.00;99.90;;;;;;5074038;28;20040;-71
2024/01/27 05:06:18;;;;;;;25.70;4.05;;;2.90;99.90;;;;;;5073541;28;20076;-71
2024/01/27 05:08:44;;;;;;;21.00;4.20;;;2.90;99.90;;;;;;5073874;28;20040;-71
2024/01/27 05:11:10;;;;;;;24.13;3.55;;;2.90;99.90;;;;;;5071912;28;20029;-71
2024/01/27 05:13:37;;;;;;;17.15;3.75;;;2.70;99.90;;;;;;5073902;28;20452;-71
2024/01/27 05:16:03;;;;;;;26.95;4.30;;;2.70;99.90;;;;;;5072241;28;20048;-71
2024/01/27 05:18:29;;;;;;;23.10;4.32;;;2.60;99.90;;;;;;5072524;28;20062;-71
2024/01/27 05:20:54;;;;;;;22.17;4.07;;;2.60;99.90;;;;;;5072213;28;20454;-71
2024/01/27 05:23:20;;;;;;;21.85;3.80;;;2.60;99.90;;;;;;5072218;28;20041;-71
2024/01/27 05:25:46;;;;;;;24.48;3.78;;;2.60;99.90;;;;;;5073522;28;20036;-71
2024/01/27 05:28:11;;;;;;;25.98;4.18;;;2.50;99.90;;;;;;5072497;28;20040;-71
2024/01/27 05:30:37;;;;;;;27.30;3.60;;;2.50;99.90;;;;;;5055717;28;20190;-71
2024/01/27 05:33:02;;;;;;;18.88;3.90;;;2.50;99.90;;;;;;5055449;28;20043;-71
2024/01/27 05:35:28;;;;;;;20.17;3.47;;;2.50;99.90;;;;;;5073488;28;20028;-71
2024/01/27 05:37:55;;;;;;;22.30;4.20;;;2.50;99.90;;;;;;5072022;28;20063;-71
2024/01/27 05:40:20;;;;;;;24.00;4.40;;;2.40;99.90;;;;;;5072032;28;20404;-71
2024/01/27 05:42:46;;;;;;;22.38;4.32;;;2.40;99.90;;;;;;5072255;28;20049;-71
2024/01/27 05:45:12;;;;;;;22.05;3.22;;;2.40;99.90;;;;;;5073029;28;20409;-71
2024/01/27 05:47:38;;;;;;;23.20;3.85;;;2.40;99.90;;;;;;5071841;28;20052;-71
2024/01/27 05:50:04;;;;;;;29.98;4.68;;;2.40;99.90;;;;;;5071901;28;20043;-71
2024/01/27 05:52:30;;;;;;;16.08;3.92;;;2.30;99.90;;;;;;5073359;28;20044;-71
2024/01/27 05:54:55;;;;;;;23.33;3.70;;;2.40;99.90;;;;;;5072954;28;20032;-71
2024/01/27 05:57:21;;;;;;;21.42;4.10;;;2.30;99.90;;;;;;5071772;28;20040;-71
2024/01/27 05:59:47;;;;;;;25.70;4.32;;;2.30;99.90;;;;;;5073284;28;20041;-71
2024/01/27 06:02:12;;;;;;;19.77;3.75;;;2.30;99.90;;;;;;5071738;28;20036;-71
2024/01/27 06:04:38;;;;;;;29.35;4.20;;;2.30;99.90;;;;;;5071709;28;20036;-71
2024/01/27 06:07:03;;;;;;;23.55;4.18;;;2.30;99.90;;;;;;5071580;28;20044;-71
2024/01/27 06:09:29;;;;;;;26.80;4.25;;;2.20;99.90;;;;;;5073204;28;20040;-71
2024/01/27 06:11:59;;;;;;;24.17;4.78;;;2.30;99.90;;;;;;5071687;28;20036;-71
2024/01/27 06:14:24;;;;;;;25.38;4.38;;;2.20;99.90;;;;;;5071627;28;20068;-71
2024/01/27 06:16:51;;;;;;;24.73;5.05;;;2.10;99.90;;;;;;5072741;28;20078;-71
2024/01/27 06:19:16;;;;;;;27.23;3.97;;;2.20;99.90;;;;;;5073110;28;20119;-71
2024/01/27 06:21:42;;;;;;;20.95;4.22;;;2.30;99.90;;;;;;5073852;28;20462;-71
2024/01/27 06:24:08;;;;;;;32.72;5.57;;;2.30;99.90;;;;;;5077103;28;20047;-71
2024/01/27 06:26:33;;;;;;;22.92;4.13;;;2.20;99.90;;;;;;5076895;28;20041;-71
2024/01/27 06:29:00;;;;;;;24.00;4.88;;;2.30;99.90;;;;;;5077009;28;20477;-71
2024/01/27 06:31:26;;;;;;;27.48;4.18;;;2.40;99.90;;;;;;5075469;28;20397;-71
2024/01/27 06:33:52;;;;;;;31.42;5.75;;;2.30;99.90;;;;;;5076957;28;20078;-71
2024/01/27 06:36:17;;;;;;;28.75;5.13;;;2.40;99.90;;;;;;5058575;28;20560;-71
2024/01/27 06:38:43;;;;;;;24.13;4.60;;;2.40;99.90;;;;;;5075370;28;20124;-71
2024/01/27 06:41:10;;;;;;;26.73;5.35;;;2.40;99.90;;;;;;5076801;28;20064;-71
2024/01/27 06:43:35;;;;;;;28.85;5.63;;;2.30;99.90;;;;;;5075472;28;20089;-71
2024/01/27 06:46:01;;;;;;;31.98;6.20;;;2.30;99.90;;;;;;5076296;28;20451;-71
2024/01/27 06:48:26;;;;;;;24.40;5.20;;;2.30;99.90;;;;;;5076658;28;20044;-71
2024/01/27 06:50:52;;;;;;;30.30;6.03;;;2.40;99.90;;;;;;5075075;28;20036;-71
2024/01/27 06:53:21;;;;;;;30.63;5.57;;;2.40;99.90;;;;;;5076516;28;20056;-71
2024/01/27 06:55:47;;;;;;;26.88;6.38;;;2.40;99.90;;;;;;5074936;28;20043;-71
2024/01/27 06:58:13;;;;;;;32.58;6.60;;;2.40;99.90;;;;;;5074941;28;20040;-71
2024/01/27 07:00:38;;;;;;;29.20;6.60;;;2.40;99.90;;;;;;5076400;28;20037;-71
2024/01/27 07:03:04;;;;;;;36.13;7.47;;;2.50;99.90;;;;;;5074858;28;20408;-70
2024/01/27 07:05:32;;;;;;;29.23;6.18;;;2.40;99.90;;;;;;5074745;28;20040;-71
2024/01/27 07:07:58;;;;;;;26.23;5.85;;;2.30;99.90;;;;;;5075896;28;20379;-71
2024/01/27 07:10:24;;;;;;;25.15;5.65;;;2.40;99.90;;;;;;5076209;28;20043;-71
2024/01/27 07:12:49;;;;;;;31.92;6.78;;;2.30;99.90;;;;;;5074931;28;20037;-71
2024/01/27 07:15:15;;;;;;;32.15;7.97;;;2.30;99.90;;;;;;5074483;28;20400;-71
2024/01/27 07:17:40;;;;;;;33.25;7.43;;;2.20;99.90;;;;;;5075993;28;20036;-71
2024/01/27 07:20:08;;;;;;;26.38;6.65;;;2.20;99.90;;;;;;5057908;28;20039;-71
2024/01/27 07:22:33;;;;;;;33.78;7.80;;;2.30;99.90;;;;;;5075707;28;20558;-70
2024/01/27 07:24:59;;;;;;;26.98;7.18;;;2.20;99.90;;;;;;5074386;28;20041;-71
2024/01/27 07:27:25;;;;;;;27.65;7.18;;;2.10;99.90;;;;;;5074313;28;20082;-71
2024/01/27 07:29:50;;;;;;;29.50;8.02;;;2.20;99.90;;;;;;5057694;28;20049;-71
2024/01/27 07:32:16;;;;;;;28.08;7.90;;;2.20;99.90;;;;;;5074881;28;20029;-70
2024/01/27 07:34:43;;;;;;;26.23;7.50;;;2.00;99.90;;;;;;5075439;28;20367;-70
2024/01/27 07:37:09;;;;;;;26.75;8.57;;;2.10;99.90;;;;;;5075475;28;20489;-70
2024/01/27 07:39:35;;;;;;;31.13;8.30;;;2.10;99.90;;;;;;5058637;28;20557;-70
2024/01/27 07:42:01;;;;;;;28.58;9.55;;;2.10;99.90;;;;;;5074474;28;20072;-70
2024/01/27 07:44:27;;;;;;;26.42;8.63;;;2.00;99.90;;;;;;5075424;28;20040;-70
2024/01/27 07:46:53;;;;;;;38.33;10.40;;;2.00;99.90;;;;;;5073936;28;20129;-70
2024/01/27 07:49:18;;;;;;;28.35;8.23;;;2.10;99.90;;;;;;5075542;28;20091;-70
2024/01/27 07:51:45;;;;;;;31.10;8.57;;;2.00;99.90;;;;;;5075152;28;20502;-70
2024/01/27 07:54:10;;;;;;;33.00;9.02;;;2.10;99.90;;;;;;5074166;28;20370;-71
2024/01/27 07:56:38;;;;;;;31.10;10.40;;;2.00;99.90;;;;;;5075298;28;20539;-71
2024/01/27 07:59:03;;;;;;;24.27;9.18;;;2.10;99.90;;;;;;5075327;28;20040;-71
2024/01/27 08:01:29;;;;;;;35.42;10.10;;;2.10;99.90;;;;;;5073970;28;20424;-71
2024/01/27 08:03:54;;;;;;;32.35;9.57;;;2.00;99.90;;;;;;5075235;28;20543;-70
2024/01/27 08:06:28;;;;;;;29.92;9.98;;;2.00;99.90;;;;;;5073521;28;20032;-71
2024/01/27 08:08:54;;;;;;;26.83;9.07;;;2.10;99.90;;;;;;5056951;28;20028;-71
2024/01/27 08:11:19;;;;;;;31.17;8.95;;;2.10;99.90;;;;;;5073563;28;20047;-71
2024/01/27 08:13:45;;;;;;;25.60;10.30;;;2.10;99.90;;;;;;5074969;28;20086;-71
2024/01/27 08:16:12;;;;;;;31.23;9.45;;;2.10;99.90;;;;;;5074612;28;20036;-71
2024/01/27 08:18:45;;;;;;;26.30;9.15;;;2.20;99.90;;;;;;5073647;28;20098;-70
2024/01/27 08:21:14;;;;;;;32.30;8.77;;;2.20;99.90;;;;;;5073629;28;20040;-70
2024/01/27 08:23:39;;;;;;;31.13;9.00;;;2.30;99.90;;;;;;5073318;28;20037;-71
2024/01/27 08:26:05;;;;;;;29.15;9.40;;;2.30;99.90;;;;;;5073170;28;20071;-71
2024/01/27 08:28:30;;;;;;;28.48;8.68;;;2.40;99.90;;;;;;5074739;28;20036;-71
2024/01/27 08:30:56;;;;;;;32.60;9.25;;;2.40;99.90;;;;;;5073544;28;20037;-71
2024/01/27 08:33:21;;;;;;;35.05;9.32;;;2.40;99.90;;;;;;5074679;28;20389;-70
2024/01/27 08:35:50;;;;;;;32.35;9.25;;;2.50;99.90;;;;;;5072966;28;20412;-70
2024/01/27 08:38:16;;;;;;;27.70;8.85;;;2.50;99.90;;;;;;5073042;28;20489;-70
2024/01/27 08:40:41;;;;;;;27.73;9.43;;;2.60;99.90;;;;;;5072988;28;20040;-70
2024/01/27 08:43:07;;;;;;;21.90;8.93;;;2.50;99.90;;;;;;5074440;28;20036;-70
2024/01/27 08:45:33;;;;;;;28.58;8.65;;;2.60;99.90;;;;;;5056227;28;20044;-73
2024/01/27 08:47:59;;;;;;;32.42;9.25;;;2.60;99.90;;;;;;5072805;28;20048;-72
2024/01/27 08:50:24;;;;;;;26.50;9.02;;;2.80;99.90;;;;;;5073109;28;20036;-70
2024/01/27 08:52:50;;;;;;;33.38;9.30;;;2.70;99.90;;;;;;5072732;28;20098;-70
2024/01/27 08:55:18;;;;;;;33.65;9.07;;;2.80;99.90;;;;;;5072649;28;20075;-69
2024/01/27 08:57:47;;;;;;;31.75;10.02;;;2.90;99.90;;;;;;5072661;28;20558;-69
2024/01/27 09:00:13;;;;;;;34.10;9.57;;;2.90;99.90;;;;;;5072575;28;20123;-69
2024/01/27 09:02:39;;;;;;;26.23;8.73;;;2.90;99.90;;;;;;5055948;28;20048;-69
2024/01/27 09:05:05;;;;;;;21.88;8.10;;;3.00;99.90;;;;;;5072708;28;20048;-69
2024/01/27 09:07:31;;;;;;;26.55;9.32;;;3.00;99.90;;;;;;5073906;28;20040;-69
2024/01/27 09:09:57;;;;;;;28.00;8.85;;;3.00;99.90;;;;;;5072402;28;20039;-70
2024/01/27 09:12:22;;;;;;;25.58;8.38;;;3.10;99.90;;;;;;5072435;28;20032;-70
2024/01/27 09:14:48;;;;;;;31.42;9.60;;;3.20;99.90;;;;;;5073925;28;20032;-70
2024/01/27 09:17:13;;;;;;;29.55;8.88;;;3.30;99.90;;;;;;5072412;28;20123;-70
2024/01/27 09:19:39;;;;;;;36.97;9.35;;;3.40;99.90;;;;;;5072580;28;20044;-69
2024/01/27 09:22:05;;;;;;;34.35;9.38;;;3.30;99.90;;;;;;5072325;28;20563;-69
2024/01/27 09:24:30;;;;;;;27.25;9.90;;;3.50;99.90;;;;;;5072485;28;20119;-70
2024/01/27 09:26:56;;;;;;;26.77;8.57;;;3.50;99.90;;;;;;5071992;28;20119;-70
2024/01/27 09:29:21;;;;;;;27.73;8.75;;;3.50;99.90;;;;;;5073634;28;20029;-70
2024/01/27 09:31:47;;;;;;;26.50;8.65;;;3.60;99.90;;;;;;5073675;28;20060;-70
2024/01/27 09:34:13;;;;;;;27.52;8.20;;;3.70;99.90;;;;;;5072030;28;20493;-70
2024/01/27 09:36:39;;;;;;;27.55;8.50;;;3.80;99.90;;;;;;5073422;28;20117;-69
2024/01/27 09:39:04;;;;;;;22.63;8.32;;;3.80;99.90;;;;;;5072373;28;20040;-69
2024/01/27 09:41:32;;;;;;;27.63;8.85;;;3.80;99.90;;;;;;5072304;28;20042;-69
2024/01/27 09:44:03;;;;;;;27.70;9.30;;;4.00;99.90;;;;;;5073336;28;20044;-71
2024/01/27 09:46:30;;;;;;;30.52;8.70;;;4.10;99.90;;;;;;5073349;28;20079;-69
2024/01/27 09:48:56;;;;;;;24.42;9.32;;;4.00;99.90;;;;;;5073419;28;20120;-69
2024/01/27 09:51:22;;;;;;;30.98;9.45;;;4.10;99.90;;;;;;5071851;28;20036;-69
2024/01/27 09:53:51;;;;;;;28.45;9.07;;;4.20;99.90;;;;;;5071779;28;20505;-71
2024/01/27 09:56:20;;;;;;;27.60;9.52;;;4.30;99.90;;;;;;5071567;28;20086;-70
2024/01/27 09:58:49;;;;;;;28.77;9.25;;;4.30;99.90;;;;;;5071743;28;20040;-70
2024/01/27 10:01:17;;;;;;;35.10;10.90;;;4.40;99.90;;;;;;5071760;28;20162;-70
2024/01/27 10:03:43;;;;;;;30.38;9.00;;;4.50;99.90;;;;;;5055346;28;20040;-70
2024/01/27 10:06:10;;;;;;;29.67;9.57;;;4.50;99.90;;;;;;5071846;28;20382;-70
2024/01/27 10:08:36;;;;;;;31.88;9.38;;;4.70;99.90;;;;;;5071771;28;20037;-70
2024/01/27 10:11:07;;;;;;;25.17;9.60;;;4.70;99.90;;;;;;5073226;28;20033;-69
2024/01/27 10:13:33;;;;;;;33.28;10.10;;;4.80;99.90;;;;;;5071692;28;20115;-70
2024/01/27 10:16:04;;;;;;;26.45;9.00;;;4.90;99.90;;;;;;5071508;28;20040;-70
2024/01/27 10:18:30;;;;;;;22.25;8.40;;;4.90;99.90;;;;;;5073180;28;20048;-69
2024/01/27 10:20:56;;;;;;;28.20;9.75;;;5.00;99.90;;;;;;5071575;28;20040;-70
2024/01/27 10:23:22;;;;;;;26.15;8.68;;;5.10;99.90;;;;;;5054855;28;20040;-70
2024/01/27 10:25:48;;;;;;;30.73;9.38;;;5.10;99.90;;;;;;5071419;28;20073;-72
2024/01/27 10:28:14;;;;;;;26.23;9.23;;;5.30;99.90;;;;;;5071510;28;20550;-69
2024/01/27 10:30:40;;;;;;;19.55;8.73;;;5.30;99.90;;;;;;5071535;28;20040;-70
2024/01/27 10:33:08;;;;;;;25.08;8.18;;;5.50;99.90;;;;;;5073016;28;20108;-70
2024/01/27 10:35:33;;;;;;;32.20;9.15;;;5.50;99.90;;;;;;5072396;28;20055;-70
2024/01/27 10:37:59;;;;;;;24.70;8.40;;;5.60;99.90;;;;;;5072936;28;20431;-70
2024/01/27 10:40:25;;;;;;;25.63;8.50;;;5.70;99.90;;;;;;5071370;28;20036;-70
2024/01/27 10:43:02;;;;;;;32.25;8.45;;;5.80;99.90;;;;;;5072550;28;20098;-70
2024/01/27 10:45:33;;;;;;;21.83;8.05;;;5.80;99.90;;;;;;5072576;28;20059;-70
2024/01/27 10:48:01;;;;;;;28.25;8.27;;;5.90;99.90;;;;;;5071292;28;20044;-70
2024/01/27 10:50:27;;;;;;;25.10;7.57;;;6.00;99.90;;;;;;5072860;28;20047;-70
2024/01/27 10:52:56;;;;;;;25.05;8.02;;;6.10;99.90;;;;;;5071269;28;20033;-70
2024/01/27 10:55:22;;;;;;;29.58;8.32;;;6.20;99.90;;;;;;5054688;28;20119;-70
2024/01/27 10:57:49;;;;;;;27.02;7.85;;;6.30;99.90;;;;;;5072756;28;20537;-70
2024/01/27 11:00:15;;;;;;;22.90;6.95;;;6.30;99.90;;;;;;5072702;28;20040;-70
2024/01/27 11:02:42;;;;;;;23.60;6.95;;;6.40;99.90;;;;;;5072638;28;20037;-70
2024/01/27 11:05:10;;;;;;;21.08;6.40;;;6.40;99.90;;;;;;5071103;28;20093;-70
2024/01/27 11:07:39;;;;;;;22.38;6.07;;;6.60;99.90;;;;;;5072762;28;20122;-70
2024/01/27 11:10:05;;;;;;;24.55;6.35;;;6.70;99.90;;;;;;5076290;28;20032;-70
2024/01/27 11:12:31;;;;;;;24.60;6.80;;;6.80;99.90;;;;;;5058062;28;20037;-71
2024/01/27 11:14:59;;;;;;;24.52;5.97;;;6.90;99.90;;;;;;5074870;28;20554;-71
2024/01/27 11:17:25;;;;;;;25.95;6.07;;;7.00;99.90;;;;;;5076156;28;20044;-70
2024/01/27 11:19:51;;;;;;;20.83;5.93;;;7.00;99.90;;;;;;5074826;28;20090;-70
2024/01/27 11:22:27;;;;;;;18.33;5.30;;;7.10;99.90;;;;;;5075786;28;20428;-69
2024/01/27 11:25:05;;;;;;;21.50;6.05;;;7.20;99.90;;;;;;5074756;28;20516;-70
2024/01/27 11:27:31;;;;;;;21.95;5.45;;;7.30;99.90;;;;;;5075910;28;20182;-69
2024/01/27 11:29:57;;;;;;;21.20;6.38;;;7.50;99.90;;;;;;5075993;28;20529;-69
2024/01/27 11:32:23;;;;;;;27.38;6.03;;;8.40;99.90;;;;;;5075576;28;20371;-69
2024/01/27 11:34:48;;;;;;;19.90;5.25;;;9.70;99.90;;;;;;5075723;28;20040;-70
2024/01/27 11:37:15;;;;;;;22.63;5.75;;;10.90;99.90;;;;;;5075799;28;20064;-70
2024/01/27 11:39:42;;;;;;;20.60;5.15;;;11.70;99.90;;;;;;5074287;28;20057;-70
2024/01/27 11:42:09;;;;;;;26.75;5.65;;;11.90;99.90;;;;;;5074978;28;20394;-70
2024/01/27 11:44:35;;;;;;;21.75;5.18;;;12.20;99.90;;;;;;5073936;28;20048;-70
2024/01/27 11:47:01;;;;;;;17.80;5.40;;;12.40;99.90;;;;;;5073956;28;20047;-70
2024/01/27 11:49:27;;;;;;;18.92;4.97;;;12.60;99.90;;;;;;5075593;28;20041;-70
2024/01/27 11:51:52;;;;;;;25.00;5.45;;;12.60;99.90;;;;;;5073943;28;20058;-70
2024/01/27 11:54:18;;;;;;;22.17;5.18;;;12.10;99.90;;;;;;5073915;28;20036;-70
2024/01/27 11:56:44;;;;;;;19.08;5.50;;;12.00;99.90;;;;;;5073838;28;20044;-70
2024/01/27 11:59:10;;;;;;;16.95;5.10;;;12.10;99.90;;;;;;5073859;28;20049;-70
2024/01/27 12:01:36;;;;;;;18.55;4.72;;;12.20;99.90;;;;;;5074188;28;20072;-70
2024/01/27 12:04:04;;;;;;;18.38;5.40;;;12.20;99.90;;;;;;5073822;28;20076;-70
2024/01/27 12:06:30;;;;;;;25.50;5.47;;;12.00;99.90;;;;;;5075094;28;20037;-71
2024/01/27 12:08:57;;;;;;;18.25;5.18;;;12.20;99.90;;;;;;5073705;28;20041;-70
2024/01/27 12:11:24;;;;;;;27.63;6.53;;;12.50;99.90;;;;;;5073873;28;20044;-70
2024/01/27 12:13:49;;;;;;;20.67;5.32;;;12.60;99.90;;;;;;5073550;28;20040;-70
2024/01/27 12:16:15;;;;;;;20.00;6.15;;;12.50;99.90;;;;;;5074980;28;20036;-70
2024/01/27 12:18:45;;;;;;;17.65;5.25;;;12.40;99.90;;;;;;5073159;28;20037;-70
2024/01/27 12:21:11;;;;;;;21.90;5.45;;;12.20;99.90;;;;;;5073693;28;20047;-70
2024/01/27 12:23:47;;;;;;;20.83;5.45;;;12.20;99.90;;;;;;5073408;28;20417;-70
2024/01/27 12:26:14;;;;;;;24.35;6.50;;;12.30;99.90;;;;;;5074425;28;20493;-70
2024/01/27 12:28:40;;;;;;;20.83;5.57;;;12.30;99.90;;;;;;5074792;28;20081;-70
2024/01/27 12:31:06;;;;;;;18.67;4.93;;;12.60;99.90;;;;;;5073270;28;20033;-70
2024/01/27 12:33:31;;;;;;;23.95;5.70;;;13.30;99.90;;;;;;5073412;28;20033;-70
2024/01/27 12:35:57;;;;;;;21.13;5.13;;;14.20;99.90;;;;;;5073044;28;20047;-70
2024/01/27 12:38:23;;;;;;;22.45;5.68;;;15.00;99.90;;;;;;5073119;28;20037;-70
2024/01/27 12:40:48;;;;;;;20.63;5.10;;;15.70;96.60;;;;;;5074539;28;20048;-71